Time;durP1;ratioP1;P1;durP2;ratioP2;P2;SDS_P1;SDS_P2;PMS_P1;PMS_P2;Temp;Humidity;BMP_temperature;BMP_pressure;BME280_temperature;BME280_humidity;BME280_pressure;Samples;Min_cycle;Max_cycle;Signal;HPM_P1;HPM_P2
2021/04/23 00:02:24;;;;;;;2.65;1.98;;;11.20;37.80;;;;;;5009151;28;20485;-79
2021/04/23 00:04:50;;;;;;;3.17;2.20;;;11.10;37.70;;;;;;5009504;28;20541;-79
2021/04/23 00:07:18;;;;;;;5.50;2.05;;;11.10;37.70;;;;;;5008953;28;20071;-80
2021/04/23 00:09:45;;;;;;;6.43;2.60;;;11.10;37.80;;;;;;4992514;28;20025;-79
2021/04/23 00:12:14;;;;;;;2.92;2.28;;;11.00;37.70;;;;;;5009156;28;20058;-79
2021/04/23 00:14:48;;;;;;;4.53;2.28;;;11.00;37.70;;;;;;4992715;28;20029;-79
2021/04/23 00:17:16;;;;;;;5.75;2.50;;;11.00;37.80;;;;;;4992285;28;20025;-79
2021/04/23 00:19:45;;;;;;;4.10;2.25;;;10.90;37.60;;;;;;4975782;28;20136;-79
2021/04/23 00:22:11;;;;;;;3.65;2.22;;;10.90;38.20;;;;;;5008747;28;20052;-79
2021/04/23 00:24:39;;;;;;;5.32;2.40;;;10.80;37.50;;;;;;5008753;28;20116;-79
2021/04/23 00:27:06;;;;;;;2.30;2.10;;;10.80;37.60;;;;;;4992148;28;20087;-81
2021/04/23 00:29:33;;;;;;;4.97;2.50;;;10.70;37.50;;;;;;4992678;28;20076;-80
2021/04/23 00:34:45;;;;;;;3.80;2.30;;;10.60;37.40;;;;;;5009955;28;20025;-79
2021/04/23 00:37:11;;;;;;;4.85;1.95;;;10.60;37.40;;;;;;5009314;28;20498;-79
2021/04/23 00:39:37;;;;;;;5.10;2.40;;;10.60;37.50;;;;;;5009395;28;20045;-78
2021/04/23 00:42:05;;;;;;;2.38;1.98;;;10.50;37.40;;;;;;5009761;28;20132;-78
2021/04/23 00:44:31;;;;;;;4.03;2.55;;;10.50;37.50;;;;;;5008688;28;20069;-78
2021/04/23 00:46:57;;;;;;;2.28;1.75;;;10.40;37.40;;;;;;5007901;28;20532;-78
2021/04/23 00:49:24;;;;;;;3.35;2.10;;;10.40;37.50;;;;;;5008283;28;20040;-78
2021/04/23 00:51:58;;;;;;;4.82;2.00;;;10.40;37.60;;;;;;5009700;28;20022;-78
2021/04/23 00:54:25;;;;;;;2.42;1.80;;;10.30;37.50;;;;;;4996080;28;20029;-79
2021/04/23 00:56:52;;;;;;;2.75;2.22;;;10.30;37.50;;;;;;5012276;28;20034;-78
2021/04/23 00:59:18;;;;;;;3.25;2.42;;;10.30;37.60;;;;;;4995778;28;20029;-79
2021/04/23 01:01:59;;;;;;;2.40;1.83;;;10.20;37.50;;;;;;5012756;28;20095;-78
2021/04/23 01:04:30;;;;;;;3.03;2.15;;;10.20;37.50;;;;;;4996485;28;20044;-78
2021/04/23 01:06:57;;;;;;;1.73;1.63;;;10.20;37.50;;;;;;5012191;28;20041;-77
2021/04/23 01:09:28;;;;;;;2.25;1.90;;;10.10;37.40;;;;;;5014026;28;20037;-78
2021/04/23 01:11:55;;;;;;;6.20;1.83;;;10.10;37.40;;;;;;5013108;28;20057;-80
2021/04/23 01:14:21;;;;;;;3.28;2.10;;;10.10;37.50;;;;;;4995956;28;20021;-79
2021/04/23 01:16:47;;;;;;;2.60;2.10;;;10.10;37.50;;;;;;5012556;28;20041;-79
2021/04/23 01:19:18;;;;;;;6.18;2.20;;;10.00;37.40;;;;;;5012288;28;20127;-78
2021/04/23 01:21:45;;;;;;;2.55;2.00;;;10.00;37.50;;;;;;5012150;28;20053;-82
2021/04/23 01:24:12;;;;;;;2.20;1.80;;;9.90;37.40;;;;;;5012313;28;20031;-80
2021/04/23 01:26:42;;;;;;;3.55;1.80;;;9.90;37.40;;;;;;5012120;28;20033;-80
2021/04/23 01:29:10;;;;;;;2.97;1.83;;;9.80;37.30;;;;;;5016843;28;20495;-79
2021/04/23 01:31:38;;;;;;;2.28;1.70;;;9.80;37.30;;;;;;5012076;28;20393;-79
2021/04/23 01:34:09;;;;;;;2.47;1.83;;;9.80;37.40;;;;;;4977680;28;20040;-81
2021/04/23 01:36:36;;;;;;;2.72;1.95;;;9.80;37.60;;;;;;5000314;28;20036;-79
2021/04/23 01:39:08;;;;;;;4.07;1.98;;;9.70;37.40;;;;;;4999971;28;20101;-79
2021/04/23 01:41:34;;;;;;;2.40;1.60;;;9.70;37.50;;;;;;4996963;28;20244;-79
2021/04/23 01:44:02;;;;;;;5.80;2.22;;;9.70;37.50;;;;;;5030177;28;20534;-78
2021/04/23 01:46:28;;;;;;;2.90;1.83;;;9.60;37.40;;;;;;4995790;28;20091;-79
2021/04/23 01:48:54;;;;;;;4.75;2.25;;;9.60;37.40;;;;;;5014315;28;20033;-78
2021/04/23 01:51:20;;;;;;;4.28;1.90;;;9.60;37.50;;;;;;5014348;28;20069;-78
2021/04/23 01:53:46;;;;;;;5.05;2.17;;;9.60;37.50;;;;;;4998293;28;20117;-78
2021/04/23 01:56:12;;;;;;;2.00;1.80;;;9.50;37.30;;;;;;4998186;28;20026;-79
2021/04/23 01:58:39;;;;;;;3.00;1.90;;;9.50;37.30;;;;;;4997821;28;20489;-80
2021/04/23 02:01:08;;;;;;;2.22;1.95;;;9.40;37.20;;;;;;5014500;28;20120;-77
2021/04/23 02:03:35;;;;;;;3.60;1.92;;;9.40;37.30;;;;;;4998642;28;20477;-79
2021/04/23 02:06:03;;;;;;;2.33;1.67;;;9.40;37.30;;;;;;4999582;28;20048;-78
2021/04/23 02:08:29;;;;;;;4.22;2.13;;;9.30;37.20;;;;;;5015974;28;20041;-78
2021/04/23 02:11:07;;;;;;;4.93;2.70;;;9.30;37.20;;;;;;5015740;28;20374;-78
2021/04/23 02:13:33;;;;;;;7.03;1.95;;;9.30;37.30;;;;;;5015445;28;20404;-78
2021/04/23 02:15:59;;;;;;;3.85;2.00;;;9.30;37.30;;;;;;4999592;28;20042;-78
2021/04/23 02:18:26;;;;;;;2.63;2.03;;;9.20;37.20;;;;;;4999576;28;20512;-79
2021/04/23 02:20:53;;;;;;;4.15;2.15;;;9.20;37.20;;;;;;4999177;28;20034;-79
2021/04/23 02:23:20;;;;;;;3.05;2.25;;;9.20;37.30;;;;;;4999894;28;20473;-79
2021/04/23 02:25:52;;;;;;;5.22;2.20;;;9.10;37.10;;;;;;5015710;28;20052;-81
2021/04/23 02:28:18;;;;;;;2.97;1.92;;;9.10;37.80;;;;;;4999202;28;20539;-80
2021/04/23 02:30:49;;;;;;;2.72;1.90;;;9.10;37.20;;;;;;5016140;28;20033;-80
2021/04/23 02:33:19;;;;;;;2.40;1.77;;;9.10;37.30;;;;;;4999122;28;20030;-79
2021/04/23 02:35:47;;;;;;;2.92;1.90;;;9.00;37.10;;;;;;5015391;28;20124;-78
2021/04/23 02:38:13;;;;;;;3.15;1.83;;;9.00;37.10;;;;;;5015682;28;20055;-78
2021/04/23 02:40:40;;;;;;;2.97;2.10;;;9.00;37.20;;;;;;5015468;28;20029;-79
2021/04/23 02:43:12;;;;;;;3.15;2.20;;;8.90;37.10;;;;;;5015223;28;20460;-78
2021/04/23 02:45:39;;;;;;;4.43;2.20;;;8.90;37.10;;;;;;5015200;28;20171;-78
2021/04/23 02:48:07;;;;;;;2.70;1.98;;;8.80;36.90;;;;;;4998142;28;20042;-78
2021/04/23 02:50:34;;;;;;;3.42;2.00;;;8.80;37.10;;;;;;5015442;28;20312;-78
2021/04/23 02:53:01;;;;;;;3.95;1.90;;;8.80;37.10;;;;;;4998893;28;20028;-78
2021/04/23 02:55:27;;;;;;;3.35;1.98;;;8.70;37.00;;;;;;4997738;28;20045;-78
2021/04/23 02:58:06;;;;;;;3.40;1.98;;;8.70;37.10;;;;;;4999164;28;20033;-79
2021/04/23 03:00:35;;;;;;;3.20;2.20;;;8.60;37.00;;;;;;4998558;28;20060;-78
2021/04/23 03:03:03;;;;;;;3.47;2.10;;;8.60;37.00;;;;;;5015183;28;20064;-78
2021/04/23 03:05:30;;;;;;;3.35;1.85;;;8.60;37.00;;;;;;4998882;28;20041;-79
2021/04/23 03:07:59;;;;;;;3.55;1.95;;;8.60;37.10;;;;;;4997913;28;20124;-78
2021/04/23 03:10:28;;;;;;;2.55;1.50;;;8.50;37.00;;;;;;5014773;28;20032;-78
2021/04/23 03:12:56;;;;;;;5.68;2.03;;;8.50;37.10;;;;;;4998933;28;20033;-78
2021/04/23 03:15:25;;;;;;;3.97;2.10;;;8.40;36.90;;;;;;5032746;28;20030;-79
2021/04/23 03:17:54;;;;;;;3.05;2.00;;;8.40;37.00;;;;;;5014554;28;20485;-78
2021/04/23 03:20:23;;;;;;;2.17;1.70;;;8.40;37.00;;;;;;5014831;28;20453;-78
2021/04/23 03:22:49;;;;;;;6.45;2.00;;;8.30;36.90;;;;;;5014729;28;20033;-78
2021/04/23 03:25:15;;;;;;;2.67;1.88;;;8.30;36.90;;;;;;5014853;28;20032;-78
2021/04/23 03:27:43;;;;;;;4.15;2.20;;;8.20;36.80;;;;;;5014398;28;20087;-78
2021/04/23 03:30:16;;;;;;;2.90;1.85;;;8.20;36.80;;;;;;5014732;28;20032;-78
2021/04/23 03:32:43;;;;;;;4.43;1.90;;;8.10;36.80;;;;;;4998254;28;20029;-78
2021/04/23 03:35:11;;;;;;;2.67;1.90;;;8.10;36.80;;;;;;4998047;28;20029;-79
2021/04/23 03:37:37;;;;;;;6.32;2.40;;;8.10;36.80;;;;;;4998109;28;20033;-78
2021/04/23 03:40:06;;;;;;;3.08;2.40;;;8.00;36.70;;;;;;4997910;28;20469;-81
2021/04/23 03:42:32;;;;;;;3.00;2.00;;;8.00;36.80;;;;;;5014351;28;20037;-81
2021/04/23 03:44:59;;;;;;;4.63;2.30;;;7.90;36.60;;;;;;4998216;28;20048;-78
2021/04/23 03:47:25;;;;;;;3.72;2.10;;;7.90;36.70;;;;;;5014093;28;20029;-79
2021/04/23 03:49:51;;;;;;;5.18;2.30;;;7.90;36.80;;;;;;4997915;28;20467;-80
2021/04/23 03:52:18;;;;;;;2.33;1.90;;;7.80;37.20;;;;;;5013901;28;20013;-78
2021/04/23 03:54:44;;;;;;;5.85;2.20;;;7.80;36.70;;;;;;4997818;28;20033;-79
2021/04/23 03:57:10;;;;;;;3.80;2.00;;;7.70;36.60;;;;;;4981592;28;20056;-79
2021/04/23 03:59:36;;;;;;;4.10;2.38;;;7.70;36.70;;;;;;4997437;28;20025;-78
2021/04/23 04:02:03;;;;;;;2.85;1.83;;;7.70;36.70;;;;;;4997425;28;20111;-78
2021/04/23 04:04:29;;;;;;;4.80;2.20;;;7.60;36.60;;;;;;5031538;28;20163;-79
2021/04/23 04:06:56;;;;;;;5.28;2.22;;;7.60;36.70;;;;;;5013934;28;20032;-79
2021/04/23 04:09:22;;;;;;;2.25;1.83;;;7.60;36.70;;;;;;4997231;28;20033;-79
2021/04/23 04:11:48;;;;;;;3.53;2.22;;;7.50;36.60;;;;;;4997269;28;20405;-79
2021/04/23 04:14:14;;;;;;;2.70;1.67;;;7.50;36.60;;;;;;5013935;28;20064;-79
2021/04/23 04:16:40;;;;;;;3.40;2.08;;;7.40;36.50;;;;;;4997221;28;20025;-80
2021/04/23 04:19:06;;;;;;;3.38;2.25;;;7.40;36.60;;;;;;4997202;28;20032;-78
2021/04/23 04:21:33;;;;;;;6.75;2.17;;;7.40;36.60;;;;;;5013459;28;20029;-78
2021/04/23 04:23:59;;;;;;;4.45;2.15;;;7.40;36.70;;;;;;5013796;28;20055;-78
2021/04/23 04:26:25;;;;;;;4.45;1.88;;;7.30;36.50;;;;;;5013387;28;20052;-78
2021/04/23 04:28:51;;;;;;;3.83;2.05;;;7.30;36.60;;;;;;4996748;28;20400;-77
2021/04/23 04:31:17;;;;;;;3.35;2.05;;;7.30;36.60;;;;;;4997161;28;20116;-77
2021/04/23 04:33:44;;;;;;;3.70;2.15;;;7.20;36.50;;;;;;5013155;28;20116;-79
2021/04/23 04:36:11;;;;;;;3.13;2.15;;;7.20;36.60;;;;;;5013864;28;20122;-77
2021/04/23 04:38:37;;;;;;;3.17;1.83;;;7.10;36.50;;;;;;5013526;28;20107;-78
2021/04/23 04:41:03;;;;;;;4.30;1.85;;;7.10;36.50;;;;;;5013312;28;20030;-77
2021/04/23 04:43:29;;;;;;;5.32;2.00;;;7.10;36.60;;;;;;5013317;28;20052;-76
2021/04/23 04:45:55;;;;;;;4.10;2.20;;;7.00;36.40;;;;;;5013429;28;20033;-77
2021/04/23 04:48:21;;;;;;;7.07;2.20;;;7.00;36.50;;;;;;4996262;28;20511;-79
2021/04/23 04:50:51;;;;;;;2.55;2.00;;;7.00;36.60;;;;;;4991059;28;20042;-77
2021/04/23 04:53:18;;;;;;;3.55;2.33;;;7.00;36.70;;;;;;4990046;28;20026;-77
2021/04/23 04:55:47;;;;;;;3.85;2.17;;;6.90;36.50;;;;;;4990234;28;20030;-77
2021/04/23 04:58:16;;;;;;;4.47;2.30;;;6.90;36.50;;;;;;4997094;28;20029;-77
2021/04/23 05:00:43;;;;;;;2.78;2.30;;;6.90;36.60;;;;;;4993599;28;20052;-77
2021/04/23 05:03:11;;;;;;;3.17;1.67;;;6.80;36.40;;;;;;5001788;28;20033;-76
2021/04/23 05:05:41;;;;;;;3.67;2.38;;;6.80;36.50;;;;;;5005949;28;20030;-76
2021/04/23 05:08:07;;;;;;;5.88;2.00;;;6.80;36.60;;;;;;4992822;28;20132;-76
2021/04/23 05:10:34;;;;;;;4.32;2.20;;;6.80;36.60;;;;;;4993291;28;20026;-76
2021/04/23 05:13:01;;;;;;;2.70;2.20;;;6.80;36.70;;;;;;4991907;28;20037;-78
2021/04/23 05:15:28;;;;;;;3.42;2.25;;;6.80;36.70;;;;;;4993001;28;20052;-77
2021/04/23 05:17:54;;;;;;;3.92;2.17;;;6.80;36.70;;;;;;5008292;28;20468;-78
2021/04/23 05:20:21;;;;;;;3.42;2.05;;;6.70;36.60;;;;;;5008052;28;20037;-78
2021/04/23 05:22:48;;;;;;;4.57;2.40;;;6.70;36.70;;;;;;5009347;28;20044;-76
2021/04/23 05:25:18;;;;;;;2.53;1.98;;;6.80;36.90;;;;;;5009357;28;20037;-80
2021/04/23 05:27:44;;;;;;;5.65;2.20;;;6.70;36.80;;;;;;5008338;28;20045;-79
2021/04/23 05:30:13;;;;;;;2.55;2.10;;;6.70;36.80;;;;;;4992632;28;20037;-77
2021/04/23 05:32:39;;;;;;;4.65;2.22;;;6.70;36.90;;;;;;5008667;28;20132;-77
2021/04/23 05:35:06;;;;;;;11.55;3.22;;;6.70;36.90;;;;;;4993024;28;20109;-81
2021/04/23 05:37:33;;;;;;;5.72;2.88;;;6.70;37.00;;;;;;4991436;28;20033;-80
2021/04/23 05:39:59;;;;;;;6.68;2.50;;;6.80;37.40;;;;;;5010541;28;20083;-87
2021/04/23 05:42:25;;;;;;;6.57;3.60;;;6.80;37.70;;;;;;5011660;28;20514;-78
2021/04/23 05:44:55;;;;;;;6.30;2.70;;;6.90;37.90;;;;;;5020070;28;20034;-78
2021/04/23 05:47:22;;;;;;;5.10;2.50;;;6.90;38.00;;;;;;5004549;28;20593;-80
2021/04/23 05:49:48;;;;;;;4.88;3.20;;;7.00;38.20;;;;;;5010344;28;20044;-79
2021/04/23 05:52:14;;;;;;;5.65;3.53;;;7.00;38.30;;;;;;5028010;28;20567;-79
2021/04/23 05:54:40;;;;;;;10.02;3.30;;;7.00;38.30;;;;;;5011261;28;20056;-79
2021/04/23 05:57:06;;;;;;;4.80;2.70;;;7.20;39.20;;;;;;4982252;28;20378;-79
2021/04/23 05:59:33;;;;;;;4.75;2.92;;;7.20;38.70;;;;;;5018367;28;20551;-78
2021/04/23 06:02:00;;;;;;;8.98;3.45;;;7.30;38.90;;;;;;5010486;28;20033;-79
2021/04/23 06:04:26;;;;;;;6.03;3.17;;;7.30;38.90;;;;;;4999050;28;20026;-78
2021/04/23 06:06:52;;;;;;;8.63;3.42;;;7.40;39.00;;;;;;4991652;28;20440;-79
2021/04/23 06:09:19;;;;;;;6.43;3.08;;;7.60;39.40;;;;;;5006954;28;20390;-78
2021/04/23 06:11:45;;;;;;;4.93;2.63;;;7.60;39.30;;;;;;5010228;28;20397;-78
2021/04/23 06:14:11;;;;;;;5.22;2.90;;;7.70;39.50;;;;;;5010408;28;20397;-80
2021/04/23 06:16:38;;;;;;;5.65;2.53;;;7.80;39.70;;;;;;5044425;28;20543;-81
2021/04/23 06:19:04;;;;;;;4.88;3.53;;;8.00;40.00;;;;;;5010842;28;20036;-78
2021/04/23 06:21:30;;;;;;;5.05;3.20;;;8.10;40.20;;;;;;4995369;28;20033;-78
2021/04/23 06:23:56;;;;;;;7.53;3.30;;;8.30;40.50;;;;;;4990265;28;20032;-77
2021/04/23 06:26:23;;;;;;;4.72;2.95;;;8.40;40.70;;;;;;4989510;28;20034;-77
2021/04/23 06:28:49;;;;;;;4.93;3.22;;;8.60;41.00;;;;;;5016978;28;20516;-77
2021/04/23 06:31:15;;;;;;;4.90;2.78;;;8.80;41.30;;;;;;5009478;28;20018;-77
2021/04/23 06:33:47;;;;;;;6.55;2.67;;;9.00;41.50;;;;;;5019772;28;20025;-77
2021/04/23 06:36:13;;;;;;;5.75;3.00;;;9.20;41.80;;;;;;5009591;28;20056;-77
2021/04/23 06:38:39;;;;;;;5.88;3.22;;;9.40;42.00;;;;;;5008812;28;20269;-77
2021/04/23 06:41:06;;;;;;;5.97;3.53;;;9.60;42.30;;;;;;5009571;28;20026;-78
2021/04/23 06:43:32;;;;;;;5.35;3.80;;;9.90;42.80;;;;;;4994182;28;20037;-78
2021/04/23 06:45:58;;;;;;;5.57;3.13;;;10.10;43.10;;;;;;4994218;28;20037;-79
2021/04/23 06:48:25;;;;;;;5.05;3.65;;;10.30;43.30;;;;;;5010036;28;20041;-78
2021/04/23 06:50:51;;;;;;;6.82;3.20;;;10.50;43.60;;;;;;4993670;28;20087;-80
2021/04/23 06:53:18;;;;;;;9.23;4.25;;;10.80;44.00;;;;;;5010667;28;20041;-79
2021/04/23 06:55:46;;;;;;;6.03;3.95;;;11.10;44.40;;;;;;5031396;28;20025;-80
2021/04/23 06:58:13;;;;;;;9.77;3.78;;;11.30;44.50;;;;;;5027387;28;20033;-77
2021/04/23 07:00:41;;;;;;;6.22;3.33;;;11.60;44.90;;;;;;5011558;28;20087;-78
2021/04/23 07:03:10;;;;;;;6.88;3.75;;;11.80;45.00;;;;;;4994626;28;20217;-79
2021/04/23 07:05:39;;;;;;;6.45;3.40;;;12.10;45.40;;;;;;4994577;28;20428;-77
2021/04/23 07:08:05;;;;;;;6.15;3.83;;;12.40;45.80;;;;;;4993545;28;20037;-78
2021/04/23 07:10:31;;;;;;;7.35;4.45;;;12.70;46.50;;;;;;5009849;28;20042;-78
2021/04/23 07:12:59;;;;;;;5.60;3.75;;;12.90;46.00;;;;;;4990167;28;20038;-78
2021/04/23 07:15:27;;;;;;;9.48;3.95;;;13.20;46.20;;;;;;4973575;28;20121;-78
2021/04/23 07:17:54;;;;;;;7.57;3.42;;;13.50;46.40;;;;;;4977689;28;20272;-78
2021/04/23 07:20:20;;;;;;;6.40;3.38;;;13.70;46.40;;;;;;5009977;28;20030;-78
2021/04/23 07:22:47;;;;;;;6.80;3.58;;;14.10;46.60;;;;;;4993296;28;20029;-80
2021/04/23 07:25:14;;;;;;;8.65;4.00;;;14.30;46.40;;;;;;4993559;28;20477;-78
2021/04/23 07:27:40;;;;;;;5.35;3.85;;;14.50;46.30;;;;;;4992974;28;20045;-79
2021/04/23 07:30:09;;;;;;;4.55;3.60;;;14.80;46.30;;;;;;5009087;28;20040;-78
2021/04/23 07:32:36;;;;;;;7.30;4.28;;;15.00;46.20;;;;;;4993174;28;20485;-78
2021/04/23 07:35:03;;;;;;;7.65;4.40;;;15.30;46.30;;;;;;4993518;28;20037;-79
2021/04/23 07:37:29;;;;;;;7.07;4.97;;;15.50;46.20;;;;;;4993310;28;20033;-79
2021/04/23 07:39:55;;;;;;;10.45;4.30;;;15.70;46.10;;;;;;5009861;28;20049;-79
2021/04/23 07:42:21;;;;;;;5.75;4.30;;;15.90;46.10;;;;;;4993200;28;20068;-79
2021/04/23 07:44:47;;;;;;;9.23;5.10;;;16.10;46.10;;;;;;5009751;28;20033;-79
2021/04/23 07:47:13;;;;;;;7.45;4.75;;;16.20;45.80;;;;;;4992145;28;20040;-79
2021/04/23 07:49:39;;;;;;;7.88;4.88;;;16.40;45.70;;;;;;5025563;28;20090;-79
2021/04/23 07:52:05;;;;;;;8.65;4.93;;;16.60;45.70;;;;;;4993295;28;20045;-79
2021/04/23 07:54:31;;;;;;;9.57;4.72;;;16.70;45.50;;;;;;5028999;28;20064;-79
2021/04/23 07:56:58;;;;;;;12.70;5.05;;;16.90;45.50;;;;;;5028881;28;20047;-79
2021/04/23 07:59:24;;;;;;;8.38;5.30;;;17.00;45.20;;;;;;5012947;28;20025;-80
2021/04/23 08:01:54;;;;;;;10.20;5.00;;;17.20;45.10;;;;;;4992073;28;20026;-79
2021/04/23 08:04:21;;;;;;;11.27;5.35;;;17.30;45.00;;;;;;5009418;28;20025;-79
2021/04/23 08:06:48;;;;;;;8.80;5.75;;;17.50;44.90;;;;;;5009351;28;20132;-79
2021/04/23 08:09:14;;;;;;;10.70;5.22;;;17.50;44.60;;;;;;5008500;28;20128;-79
2021/04/23 08:11:40;;;;;;;10.85;5.78;;;17.70;44.60;;;;;;4976596;28;20149;-79
2021/04/23 08:14:07;;;;;;;12.73;5.18;;;17.80;44.40;;;;;;4992215;28;20079;-79
2021/04/23 08:16:33;;;;;;;8.40;6.03;;;17.90;44.30;;;;;;5008918;28;20029;-78
2021/04/23 08:18:59;;;;;;;6.30;5.45;;;18.00;44.20;;;;;;5007646;28;20087;-80
2021/04/23 08:21:25;;;;;;;6.63;5.45;;;18.10;44.10;;;;;;5009005;28;20476;-79
2021/04/23 08:23:51;;;;;;;10.90;5.65;;;18.10;43.70;;;;;;4992237;28;20033;-78
2021/04/23 08:26:18;;;;;;;10.07;5.80;;;18.20;43.70;;;;;;4992272;28;20040;-78
2021/04/23 08:28:44;;;;;;;8.82;5.72;;;18.20;43.40;;;;;;5007667;28;20843;-77
2021/04/23 08:31:10;;;;;;;9.07;5.40;;;18.20;43.20;;;;;;4992426;28;20033;-78
2021/04/23 08:33:37;;;;;;;15.48;6.03;;;18.10;42.90;;;;;;5008963;28;20577;-78
2021/04/23 08:36:03;;;;;;;14.25;6.22;;;18.10;43.00;;;;;;4992641;28;20060;-78
2021/04/23 08:38:29;;;;;;;11.73;5.50;;;18.00;43.00;;;;;;4993102;28;20056;-79
2021/04/23 08:40:57;;;;;;;10.30;5.93;;;17.80;42.80;;;;;;5009496;28;20294;-78
2021/04/23 08:43:25;;;;;;;7.28;5.65;;;17.70;42.80;;;;;;4993017;28;20029;-79
2021/04/23 08:45:51;;;;;;;7.97;5.70;;;17.60;42.80;;;;;;5008463;28;20026;-80
2021/04/23 08:48:18;;;;;;;10.15;6.82;;;17.50;42.80;;;;;;4992550;28;20625;-78
2021/04/23 08:50:44;;;;;;;10.88;6.05;;;17.40;42.80;;;;;;4991852;28;20408;-78
2021/04/23 08:53:11;;;;;;;8.25;5.68;;;17.30;42.80;;;;;;5025289;28;20033;-79
2021/04/23 08:55:38;;;;;;;10.50;6.40;;;17.20;42.70;;;;;;5026411;28;20255;-78
2021/04/23 08:58:05;;;;;;;8.05;6.18;;;17.10;42.70;;;;;;5008519;28;20776;-78
2021/04/23 09:00:31;;;;;;;9.52;6.75;;;17.00;42.70;;;;;;5026206;28;20029;-79
2021/04/23 09:02:58;;;;;;;11.55;6.00;;;16.90;42.60;;;;;;5025538;28;20616;-79
2021/04/23 09:05:24;;;;;;;12.68;7.80;;;16.90;42.60;;;;;;5025943;28;20048;-79
2021/04/23 09:08:03;;;;;;;10.90;6.47;;;16.90;42.70;;;;;;5008003;28;20489;-78
2021/04/23 09:10:30;;;;;;;12.13;6.80;;;16.90;42.70;;;;;;5008043;28;20721;-78
2021/04/23 09:13:13;;;;;;;12.55;7.10;;;16.80;42.60;;;;;;5027337;28;20033;-79
2021/04/23 09:15:44;;;;;;;8.20;6.57;;;16.80;42.50;;;;;;5010997;28;20035;-79
2021/04/23 09:18:14;;;;;;;10.15;7.70;;;16.80;42.60;;;;;;5012328;28;20037;-79
2021/04/23 09:20:45;;;;;;;9.95;6.35;;;16.80;42.60;;;;;;5027453;28;20655;-80
2021/04/23 09:23:16;;;;;;;10.23;7.60;;;16.70;42.40;;;;;;5012022;28;20157;-80
2021/04/23 09:25:55;;;;;;;12.20;7.95;;;16.70;43.00;;;;;;5029898;28;20067;-81
2021/04/23 09:28:42;;;;;;;11.57;7.40;;;16.70;42.30;;;;;;5012495;28;20041;-80
2021/04/23 09:31:29;;;;;;;9.90;7.15;;;16.70;42.40;;;;;;5012147;28;20055;-81
2021/04/23 09:33:58;;;;;;;13.27;7.47;;;16.80;42.50;;;;;;5012574;28;20040;-81
2021/04/23 09:36:30;;;;;;;13.30;7.55;;;16.80;42.60;;;;;;5013262;28;20033;-81
2021/04/23 09:39:09;;;;;;;10.02;7.25;;;16.80;42.50;;;;;;5012755;28;20025;-81
2021/04/23 09:41:36;;;;;;;12.82;7.95;;;16.80;42.50;;;;;;5012072;28;20473;-80
2021/04/23 09:44:03;;;;;;;9.00;7.10;;;16.90;42.60;;;;;;5029380;28;20037;-81
2021/04/23 09:46:37;;;;;;;12.75;7.90;;;16.90;42.60;;;;;;5029496;28;20044;-80
2021/04/23 09:49:19;;;;;;;10.35;7.85;;;16.90;42.60;;;;;;5011388;28;20121;-80
2021/04/23 09:51:46;;;;;;;11.35;7.07;;;16.90;42.50;;;;;;5029554;28;20504;-82
2021/04/23 09:54:17;;;;;;;12.52;7.75;;;16.90;42.50;;;;;;5028125;28;20728;-81
2021/04/23 09:56:44;;;;;;;9.57;7.65;;;17.00;42.60;;;;;;5011542;28;20034;-82
2021/04/23 09:59:17;;;;;;;10.48;8.20;;;17.00;42.50;;;;;;5027969;28;20569;-81
2021/04/23 10:01:50;;;;;;;;;;;17.00;42.50;;;;;;5029270;28;20037;-80
2021/04/23 10:04:22;;;;;;;14.65;8.13;;;17.10;42.70;;;;;;5045396;28;19913;-80
2021/04/23 10:06:48;;;;;;;9.73;8.50;;;17.10;42.60;;;;;;5007673;28;20540;-80
2021/04/23 10:09:14;;;;;;;11.20;8.48;;;17.20;42.80;;;;;;5018553;28;20045;-80
2021/04/23 10:11:43;;;;;;;11.57;8.40;;;17.20;42.70;;;;;;5011963;28;20052;-81
2021/04/23 10:14:13;;;;;;;14.90;9.23;;;17.20;42.70;;;;;;5011736;28;20420;-80
2021/04/23 10:16:40;;;;;;;12.95;8.38;;;17.30;42.80;;;;;;5012289;28;20550;-82
2021/04/23 10:19:06;;;;;;;14.82;8.23;;;17.30;42.80;;;;;;4995390;28;20500;-83
2021/04/23 10:21:32;;;;;;;14.00;8.95;;;17.30;42.70;;;;;;5012058;28;20029;-81
2021/04/23 10:24:00;;;;;;;11.40;8.18;;;17.40;42.80;;;;;;4990780;28;20037;-82
2021/04/23 10:26:26;;;;;;;8.13;7.32;;;17.40;42.80;;;;;;5007844;28;20073;-81
2021/04/23 10:28:53;;;;;;;13.40;8.65;;;17.40;42.80;;;;;;5018192;28;20057;-82
2021/04/23 10:31:20;;;;;;;11.85;8.30;;;17.50;42.90;;;;;;4995035;28;20184;-84
2021/04/23 10:33:46;;;;;;;9.70;8.00;;;17.50;42.80;;;;;;5010345;28;20048;-81
2021/04/23 10:36:12;;;;;;;13.35;8.98;;;17.60;42.90;;;;;;4994100;28;20519;-82
2021/04/23 10:38:40;;;;;;;14.50;9.25;;;17.60;42.80;;;;;;5011309;28;20044;-81
2021/04/23 10:41:10;;;;;;;10.13;8.35;;;17.60;42.80;;;;;;5011090;28;20342;-80
2021/04/23 10:43:48;;;;;;;10.60;8.45;;;17.70;42.90;;;;;;4995108;28;20510;-83
2021/04/23 10:46:15;;;;;;;12.65;9.48;;;17.80;43.00;;;;;;4994950;28;20037;-81
2021/04/23 10:48:43;;;;;;;10.77;8.45;;;17.80;42.90;;;;;;5027339;28;20034;-79
2021/04/23 10:51:25;;;;;;;12.10;9.15;;;17.80;42.90;;;;;;4995346;28;20348;-80
2021/04/23 10:53:53;;;;;;;11.48;8.80;;;17.90;43.00;;;;;;5011986;28;20041;-81
2021/04/23 10:56:28;;;;;;;14.07;8.70;;;18.00;43.10;;;;;;5011241;28;20365;-81
2021/04/23 10:59:00;;;;;;;14.20;9.13;;;18.00;42.90;;;;;;4995703;28;20123;-80
2021/04/23 11:01:32;;;;;;;13.82;9.50;;;18.00;42.90;;;;;;5027611;28;20475;-80
2021/04/23 11:04:10;;;;;;;11.75;8.57;;;18.10;43.00;;;;;;5011678;28;20065;-81
2021/04/23 11:06:42;;;;;;;13.15;8.43;;;18.10;42.80;;;;;;5010792;28;20022;-82
2021/04/23 11:09:12;;;;;;;12.23;8.68;;;18.20;43.00;;;;;;5010011;28;20056;-79
2021/04/23 11:11:40;;;;;;;10.02;8.15;;;18.20;43.00;;;;;;4981757;28;20042;-80
2021/04/23 11:14:22;;;;;;;14.70;9.25;;;18.30;43.20;;;;;;5002299;28;20037;-79
2021/04/23 11:16:49;;;;;;;13.80;9.65;;;18.30;43.10;;;;;;4974317;28;20033;-82
2021/04/23 11:19:19;;;;;;;11.07;9.48;;;18.40;43.20;;;;;;5006148;28;20149;-79
2021/04/23 11:21:47;;;;;;;13.70;8.93;;;18.50;43.20;;;;;;5006554;28;20040;-80
2021/04/23 11:24:17;;;;;;;13.93;9.57;;;18.50;43.20;;;;;;5006248;28;20034;-81
2021/04/23 11:27:00;;;;;;;11.93;10.07;;;18.60;43.30;;;;;;4974172;28;20060;-81
2021/04/23 11:29:27;;;;;;;13.48;9.82;;;18.70;43.30;;;;;;5005971;28;20049;-81
2021/04/23 11:32:06;;;;;;;16.33;10.40;;;18.70;43.30;;;;;;5008070;28;20030;-79
2021/04/23 11:34:36;;;;;;;11.05;9.57;;;18.80;43.90;;;;;;5004942;28;20398;-79
2021/04/23 11:37:04;;;;;;;10.73;8.70;;;18.90;44.10;;;;;;5021601;28;20025;-79
2021/04/23 11:39:33;;;;;;;8.73;7.90;;;18.90;43.40;;;;;;5007293;28;20073;-80
2021/04/23 11:42:17;;;;;;;11.13;9.82;;;19.00;43.40;;;;;;5007699;28;20041;-80
2021/04/23 11:44:51;;;;;;;10.15;8.38;;;19.10;43.50;;;;;;4990080;28;20034;-79
2021/04/23 11:47:45;;;;;;;14.02;9.18;;;19.10;44.00;;;;;;4990857;28;20124;-80
2021/04/23 11:50:31;;;;;;;15.30;10.30;;;19.20;43.50;;;;;;5006447;28;20611;-80
2021/04/23 11:53:15;;;;;;;10.48;9.32;;;19.20;43.50;;;;;;4989978;28;20456;-79
2021/04/23 11:55:44;;;;;;;11.35;8.90;;;19.30;43.60;;;;;;4990148;28;20129;-80
2021/04/23 11:58:19;;;;;;;10.55;8.80;;;19.40;43.80;;;;;;4989426;28;20084;-79
2021/04/23 12:00:58;;;;;;;11.85;8.57;;;19.40;43.60;;;;;;4973664;28;20030;-80
2021/04/23 12:03:24;;;;;;;11.48;9.27;;;19.50;43.70;;;;;;4990286;28;20033;-80
2021/04/23 12:05:55;;;;;;;9.65;8.48;;;19.60;43.80;;;;;;4974493;28;20054;-79
2021/04/23 12:08:35;;;;;;;9.23;8.18;;;19.70;43.90;;;;;;4989911;28;20038;-79
2021/04/23 12:11:06;;;;;;;10.35;8.23;;;19.70;43.70;;;;;;4996246;28;20052;-80
2021/04/23 12:13:38;;;;;;;8.85;7.93;;;19.80;43.90;;;;;;4992896;28;20090;-79
2021/04/23 12:16:08;;;;;;;11.07;7.55;;;19.90;43.90;;;;;;4992382;28;20087;-80
2021/04/23 12:18:45;;;;;;;9.45;7.40;;;20.00;44.00;;;;;;5008489;28;20443;-79
2021/04/23 12:21:12;;;;;;;11.10;8.18;;;20.10;44.10;;;;;;5008980;28;20116;-79
2021/04/23 12:23:39;;;;;;;11.95;7.88;;;20.10;44.00;;;;;;4991813;28;20561;-79
2021/04/23 12:26:09;;;;;;;11.75;7.85;;;20.20;44.10;;;;;;5025601;28;20032;-79
2021/04/23 12:28:51;;;;;;;8.43;7.50;;;20.30;44.00;;;;;;4992731;28;20038;-79
2021/04/23 12:31:23;;;;;;;9.27;8.20;;;20.40;44.10;;;;;;5009432;28;20524;-79
2021/04/23 12:34:01;;;;;;;8.70;7.63;;;20.40;44.10;;;;;;5027231;28;20104;-81
2021/04/23 12:36:49;;;;;;;8.77;6.82;;;20.50;44.10;;;;;;5027102;28;20025;-81
2021/04/23 12:39:22;;;;;;;7.40;6.60;;;20.60;44.20;;;;;;4992682;28;20041;-80
2021/04/23 12:41:48;;;;;;;;;;;20.70;44.20;;;;;;5009185;28;20084;-81
2021/04/23 12:44:27;;;;;;;10.18;6.78;;;20.80;44.50;;;;;;5008317;28;20385;-80
2021/04/23 12:47:02;;;;;;;8.57;6.53;;;20.90;44.50;;;;;;5008892;28;20117;-79
2021/04/23 12:49:30;;;;;;;9.95;6.57;;;21.00;44.40;;;;;;5008649;28;20447;-80
2021/04/23 12:51:58;;;;;;;6.85;5.95;;;21.10;44.60;;;;;;5025864;28;20527;-80
2021/04/23 12:54:42;;;;;;;7.30;6.38;;;21.20;44.60;;;;;;5008533;28;20036;-80
2021/04/23 12:57:14;;;;;;;7.72;6.25;;;21.20;44.40;;;;;;4990111;28;20061;-80
2021/04/23 12:59:53;;;;;;;7.40;5.93;;;21.30;44.50;;;;;;4992135;28;20494;-82